sensor_id;sensor_type;location;lat;lon;timestamp;temperature;humidity
29003;DHT22;16102;57.138;-2.118;2023-02-02T00:01:17;6.30;1.00
29003;DHT22;16102;57.138;-2.118;2023-02-02T00:03:44;6.30;25.70
29003;DHT22;16102;57.138;-2.118;2023-02-02T00:06:12;6.30;99.90
29003;DHT22;16102;57.138;-2.118;2023-02-02T00:08:39;6.30;1.00
29003;DHT22;16102;57.138;-2.118;2023-02-02T00:11:05;6.20;99.90
29003;DHT22;16102;57.138;-2.118;2023-02-02T00:13:32;6.20;99.90
29003;DHT22;16102;57.138;-2.118;2023-02-02T00:19:00;6.00;1.00
29003;DHT22;16102;57.138;-2.118;2023-02-02T00:21:28;5.90;99.90
29003;DHT22;16102;57.138;-2.118;2023-02-02T00:23:55;5.80;99.90
29003;DHT22;16102;57.138;-2.118;2023-02-02T00:26:22;6.00;1.00
29003;DHT22;16102;57.138;-2.118;2023-02-02T00:28:49;6.00;99.90
29003;DHT22;16102;57.138;-2.118;2023-02-02T00:31:16;6.00;99.90
29003;DHT22;16102;57.138;-2.118;2023-02-02T00:33:45;6.00;1.00
29003;DHT22;16102;57.138;-2.118;2023-02-02T00:36:12;5.90;1.00
29003;DHT22;16102;57.138;-2.118;2023-02-02T00:38:39;6.00;99.90
29003;DHT22;16102;57.138;-2.118;2023-02-02T00:41:06;6.00;1.00
29003;DHT22;16102;57.138;-2.118;2023-02-02T00:43:33;6.10;99.90
29003;DHT22;16102;57.138;-2.118;2023-02-02T00:46:00;6.10;99.90
29003;DHT22;16102;57.138;-2.118;2023-02-02T00:48:27;6.00;99.90
29003;DHT22;16102;57.138;-2.118;2023-02-02T00:50:54;5.90;99.90
29003;DHT22;16102;57.138;-2.118;2023-02-02T00:53:21;6.00;99.90
29003;DHT22;16102;57.138;-2.118;2023-02-02T00:55:48;6.00;99.90
29003;DHT22;16102;57.138;-2.118;2023-02-02T00:58:15;6.00;99.90
29003;DHT22;16102;57.138;-2.118;2023-02-02T01:00:42;6.00;99.90
29003;DHT22;16102;57.138;-2.118;2023-02-02T01:03:10;6.00;56.00
29003;DHT22;16102;57.138;-2.118;2023-02-02T01:05:39;6.00;27.00
29003;DHT22;16102;57.138;-2.118;2023-02-02T01:08:06;5.90;9.70
29003;DHT22;16102;57.138;-2.118;2023-02-02T01:10:34;5.90;1.00
29003;DHT22;16102;57.138;-2.118;2023-02-02T01:13:01;5.90;99.90
29003;DHT22;16102;57.138;-2.118;2023-02-02T01:15:28;6.00;99.90
29003;DHT22;16102;57.138;-2.118;2023-02-02T01:17:56;5.90;99.90
29003;DHT22;16102;57.138;-2.118;2023-02-02T01:20:24;6.00;99.90
29003;DHT22;16102;57.138;-2.118;2023-02-02T01:22:51;5.90;99.90
29003;DHT22;16102;57.138;-2.118;2023-02-02T01:25:18;6.00;99.90
29003;DHT22;16102;57.138;-2.118;2023-02-02T01:27:45;6.00;1.00
29003;DHT22;16102;57.138;-2.118;2023-02-02T01:30:13;6.10;1.00
29003;DHT22;16102;57.138;-2.118;2023-02-02T01:32:39;6.10;1.00
29003;DHT22;16102;57.138;-2.118;2023-02-02T01:35:07;6.10;6.40
29003;DHT22;16102;57.138;-2.118;2023-02-02T01:37:35;6.00;99.90
29003;DHT22;16102;57.138;-2.118;2023-02-02T01:40:04;6.00;99.90
29003;DHT22;16102;57.138;-2.118;2023-02-02T01:42:31;6.10;99.90
29003;DHT22;16102;57.138;-2.118;2023-02-02T01:45:08;6.10;99.90
29003;DHT22;16102;57.138;-2.118;2023-02-02T01:47:42;6.20;99.90
29003;DHT22;16102;57.138;-2.118;2023-02-02T01:50:13;6.20;99.90
29003;DHT22;16102;57.138;-2.118;2023-02-02T01:52:44;6.20;99.90
29003;DHT22;16102;57.138;-2.118;2023-02-02T01:55:14;6.10;99.90
29003;DHT22;16102;57.138;-2.118;2023-02-02T01:58:35;6.10;99.90
29003;DHT22;16102;57.138;-2.118;2023-02-02T02:00:43;6.10;99.90
29003;DHT22;16102;57.138;-2.118;2023-02-02T02:03:15;6.10;99.90
29003;DHT22;16102;57.138;-2.118;2023-02-02T02:05:57;6.00;1.00
29003;DHT22;16102;57.138;-2.118;2023-02-02T02:11:07;6.10;1.00
29003;DHT22;16102;57.138;-2.118;2023-02-02T02:13:36;6.10;1.00
29003;DHT22;16102;57.138;-2.118;2023-02-02T02:16:35;6.10;1.00
29003;DHT22;16102;57.138;-2.118;2023-02-02T02:22:13;6.20;1.00
29003;DHT22;16102;57.138;-2.118;2023-02-02T02:25:16;6.10;1.00
29003;DHT22;16102;57.138;-2.118;2023-02-02T02:40:00;6.00;18.20
29003;DHT22;16102;57.138;-2.118;2023-02-02T02:42:32;6.00;1.00
29003;DHT22;16102;57.138;-2.118;2023-02-02T02:45:01;6.00;1.00
29003;DHT22;16102;57.138;-2.118;2023-02-02T02:47:30;6.00;99.90
29003;DHT22;16102;57.138;-2.118;2023-02-02T02:49:57;6.00;99.90
29003;DHT22;16102;57.138;-2.118;2023-02-02T02:52:25;5.90;80.80
29003;DHT22;16102;57.138;-2.118;2023-02-02T02:54:54;5.90;1.00
29003;DHT22;16102;57.138;-2.118;2023-02-02T02:58:03;5.90;1.00
29003;DHT22;16102;57.138;-2.118;2023-02-02T03:03:15;5.80;1.00
29003;DHT22;16102;57.138;-2.118;2023-02-02T03:06:10;5.80;99.90
29003;DHT22;16102;57.138;-2.118;2023-02-02T03:08:43;5.90;99.90
29003;DHT22;16102;57.138;-2.118;2023-02-02T03:11:12;5.80;99.90
29003;DHT22;16102;57.138;-2.118;2023-02-02T03:13:41;5.80;99.90
29003;DHT22;16102;57.138;-2.118;2023-02-02T03:16:10;5.70;1.00
29003;DHT22;16102;57.138;-2.118;2023-02-02T03:18:37;5.80;1.00
29003;DHT22;16102;57.138;-2.118;2023-02-02T03:21:05;5.80;1.00
29003;DHT22;16102;57.138;-2.118;2023-02-02T03:23:32;5.90;1.00
29003;DHT22;16102;57.138;-2.118;2023-02-02T03:25:59;5.80;99.90
29003;DHT22;16102;57.138;-2.118;2023-02-02T03:28:27;5.80;99.90
29003;DHT22;16102;57.138;-2.118;2023-02-02T03:30:57;5.90;1.00
29003;DHT22;16102;57.138;-2.118;2023-02-02T03:33:25;5.90;1.00
29003;DHT22;16102;57.138;-2.118;2023-02-02T03:35:52;5.90;1.00
29003;DHT22;16102;57.138;-2.118;2023-02-02T03:38:19;6.00;1.00
29003;DHT22;16102;57.138;-2.118;2023-02-02T03:40:47;6.00;16.90
29003;DHT22;16102;57.138;-2.118;2023-02-02T03:43:22;6.00;99.90
29003;DHT22;16102;57.138;-2.118;2023-02-02T03:46:00;6.00;81.80
29003;DHT22;16102;57.138;-2.118;2023-02-02T03:48:30;6.00;1.00
29003;DHT22;16102;57.138;-2.118;2023-02-02T03:50:58;5.90;99.90
29003;DHT22;16102;57.138;-2.118;2023-02-02T03:53:25;5.80;99.90
29003;DHT22;16102;57.138;-2.118;2023-02-02T03:55:52;5.80;99.90
29003;DHT22;16102;57.138;-2.118;2023-02-02T03:58:20;5.80;99.90
29003;DHT22;16102;57.138;-2.118;2023-02-02T04:00:48;5.70;99.90
29003;DHT22;16102;57.138;-2.118;2023-02-02T04:03:15;5.80;1.00
29003;DHT22;16102;57.138;-2.118;2023-02-02T04:05:56;5.70;1.00
29003;DHT22;16102;57.138;-2.118;2023-02-02T04:08:23;5.80;99.90
29003;DHT22;16102;57.138;-2.118;2023-02-02T04:10:50;5.70;1.00
29003;DHT22;16102;57.138;-2.118;2023-02-02T04:13:18;5.60;99.90
29003;DHT22;16102;57.138;-2.118;2023-02-02T04:15:45;5.70;1.00
29003;DHT22;16102;57.138;-2.118;2023-02-02T04:18:12;5.70;99.90
29003;DHT22;16102;57.138;-2.118;2023-02-02T04:20:39;5.70;1.00
29003;DHT22;16102;57.138;-2.118;2023-02-02T04:23:06;5.60;1.00
29003;DHT22;16102;57.138;-2.118;2023-02-02T04:25:33;5.50;1.00
29003;DHT22;16102;57.138;-2.118;2023-02-02T04:28:00;5.50;99.90
29003;DHT22;16102;57.138;-2.118;2023-02-02T04:30:27;5.60;1.00
29003;DHT22;16102;57.138;-2.118;2023-02-02T04:32:54;5.60;1.00
29003;DHT22;16102;57.138;-2.118;2023-02-02T04:35:21;5.60;1.00
29003;DHT22;16102;57.138;-2.118;2023-02-02T04:37:49;5.60;16.70
29003;DHT22;16102;57.138;-2.118;2023-02-02T04:40:16;5.60;99.90
29003;DHT22;16102;57.138;-2.118;2023-02-02T04:42:44;5.70;99.90
29003;DHT22;16102;57.138;-2.118;2023-02-02T04:45:11;5.70;99.90
29003;DHT22;16102;57.138;-2.118;2023-02-02T04:47:37;5.70;99.90
29003;DHT22;16102;57.138;-2.118;2023-02-02T04:50:05;5.80;99.90
29003;DHT22;16102;57.138;-2.118;2023-02-02T04:52:32;5.70;99.90
29003;DHT22;16102;57.138;-2.118;2023-02-02T04:54:59;5.70;99.90
29003;DHT22;16102;57.138;-2.118;2023-02-02T04:57:26;5.70;99.90
29003;DHT22;16102;57.138;-2.118;2023-02-02T04:59:53;5.70;99.90
29003;DHT22;16102;57.138;-2.118;2023-02-02T05:02:20;5.70;99.90
29003;DHT22;16102;57.138;-2.118;2023-02-02T05:04:47;5.70;99.90
29003;DHT22;16102;57.138;-2.118;2023-02-02T05:07:14;5.60;1.00
29003;DHT22;16102;57.138;-2.118;2023-02-02T05:09:42;5.60;99.90
29003;DHT22;16102;57.138;-2.118;2023-02-02T05:12:09;5.60;99.90
29003;DHT22;16102;57.138;-2.118;2023-02-02T05:14:36;5.70;99.90
29003;DHT22;16102;57.138;-2.118;2023-02-02T05:17:03;5.70;99.90
29003;DHT22;16102;57.138;-2.118;2023-02-02T05:19:31;5.70;99.90
29003;DHT22;16102;57.138;-2.118;2023-02-02T05:21:58;5.70;99.90
29003;DHT22;16102;57.138;-2.118;2023-02-02T05:24:25;5.80;99.90
29003;DHT22;16102;57.138;-2.118;2023-02-02T05:26:53;5.80;1.00
29003;DHT22;16102;57.138;-2.118;2023-02-02T05:29:24;5.80;99.90
29003;DHT22;16102;57.138;-2.118;2023-02-02T05:31:52;5.70;99.90
29003;DHT22;16102;57.138;-2.118;2023-02-02T05:34:20;5.80;99.90
29003;DHT22;16102;57.138;-2.118;2023-02-02T05:36:49;5.80;99.90
29003;DHT22;16102;57.138;-2.118;2023-02-02T05:39:16;5.80;99.90
29003;DHT22;16102;57.138;-2.118;2023-02-02T05:41:43;5.80;99.90
29003;DHT22;16102;57.138;-2.118;2023-02-02T05:44:12;5.80;99.90
29003;DHT22;16102;57.138;-2.118;2023-02-02T05:46:40;5.80;99.90
29003;DHT22;16102;57.138;-2.118;2023-02-02T05:49:12;5.80;99.90
29003;DHT22;16102;57.138;-2.118;2023-02-02T05:51:46;5.80;99.90
29003;DHT22;16102;57.138;-2.118;2023-02-02T05:54:14;5.80;99.90
29003;DHT22;16102;57.138;-2.118;2023-02-02T05:56:50;5.80;57.50
29003;DHT22;16102;57.138;-2.118;2023-02-02T05:59:18;5.80;55.60
29003;DHT22;16102;57.138;-2.118;2023-02-02T06:01:46;5.80;1.00
29003;DHT22;16102;57.138;-2.118;2023-02-02T06:04:13;5.90;38.10
29003;DHT22;16102;57.138;-2.118;2023-02-02T06:06:42;5.90;99.90
29003;DHT22;16102;57.138;-2.118;2023-02-02T06:09:10;6.00;99.90
29003;DHT22;16102;57.138;-2.118;2023-02-02T06:11:37;6.00;1.00
29003;DHT22;16102;57.138;-2.118;2023-02-02T06:14:05;6.00;1.00
29003;DHT22;16102;57.138;-2.118;2023-02-02T06:16:33;6.00;1.00
29003;DHT22;16102;57.138;-2.118;2023-02-02T06:19:00;6.00;47.30
29003;DHT22;16102;57.138;-2.118;2023-02-02T06:21:27;6.10;99.90
29003;DHT22;16102;57.138;-2.118;2023-02-02T06:23:57;6.10;99.90
29003;DHT22;16102;57.138;-2.118;2023-02-02T06:26:24;6.10;99.90
29003;DHT22;16102;57.138;-2.118;2023-02-02T06:28:53;6.10;99.90
29003;DHT22;16102;57.138;-2.118;2023-02-02T06:31:21;6.20;99.90
29003;DHT22;16102;57.138;-2.118;2023-02-02T06:33:56;6.20;99.90
29003;DHT22;16102;57.138;-2.118;2023-02-02T06:36:25;6.20;99.90
29003;DHT22;16102;57.138;-2.118;2023-02-02T06:38:54;6.10;99.90
29003;DHT22;16102;57.138;-2.118;2023-02-02T06:41:22;6.20;99.90
29003;DHT22;16102;57.138;-2.118;2023-02-02T06:43:50;6.20;99.90
29003;DHT22;16102;57.138;-2.118;2023-02-02T06:46:17;6.20;99.90
29003;DHT22;16102;57.138;-2.118;2023-02-02T06:48:45;6.20;99.90
29003;DHT22;16102;57.138;-2.118;2023-02-02T06:51:12;6.20;99.90
29003;DHT22;16102;57.138;-2.118;2023-02-02T06:53:39;6.30;99.90
29003;DHT22;16102;57.138;-2.118;2023-02-02T06:56:08;6.30;1.00
29003;DHT22;16102;57.138;-2.118;2023-02-02T06:58:40;6.30;1.00
29003;DHT22;16102;57.138;-2.118;2023-02-02T07:01:09;6.40;1.00
29003;DHT22;16102;57.138;-2.118;2023-02-02T07:03:41;6.40;28.90
29003;DHT22;16102;57.138;-2.118;2023-02-02T07:06:21;6.40;89.30
29003;DHT22;16102;57.138;-2.118;2023-02-02T07:08:49;6.50;99.90
29003;DHT22;16102;57.138;-2.118;2023-02-02T07:11:31;6.50;99.90
29003;DHT22;16102;57.138;-2.118;2023-02-02T07:14:11;6.50;99.90
29003;DHT22;16102;57.138;-2.118;2023-02-02T07:16:38;6.50;99.90
29003;DHT22;16102;57.138;-2.118;2023-02-02T07:19:06;6.50;99.90
29003;DHT22;16102;57.138;-2.118;2023-02-02T07:21:33;6.50;99.90
29003;DHT22;16102;57.138;-2.118;2023-02-02T07:24:04;6.50;99.90
29003;DHT22;16102;57.138;-2.118;2023-02-02T07:26:33;6.50;99.90
29003;DHT22;16102;57.138;-2.118;2023-02-02T07:29:01;6.60;99.90
29003;DHT22;16102;57.138;-2.118;2023-02-02T07:31:30;6.50;99.90
29003;DHT22;16102;57.138;-2.118;2023-02-02T07:34:00;6.60;99.90
29003;DHT22;16102;57.138;-2.118;2023-02-02T07:36:27;6.60;99.90
29003;DHT22;16102;57.138;-2.118;2023-02-02T07:38:54;6.60;99.90
29003;DHT22;16102;57.138;-2.118;2023-02-02T07:41:23;6.60;99.90
29003;DHT22;16102;57.138;-2.118;2023-02-02T07:43:51;6.50;99.90
29003;DHT22;16102;57.138;-2.118;2023-02-02T07:46:18;6.60;99.90
29003;DHT22;16102;57.138;-2.118;2023-02-02T07:48:46;6.60;99.90
29003;DHT22;16102;57.138;-2.118;2023-02-02T07:51:15;6.60;99.90
29003;DHT22;16102;57.138;-2.118;2023-02-02T07:53:49;6.70;99.90
29003;DHT22;16102;57.138;-2.118;2023-02-02T07:56:18;6.70;99.90
29003;DHT22;16102;57.138;-2.118;2023-02-02T07:58:46;6.70;99.90
29003;DHT22;16102;57.138;-2.118;2023-02-02T08:01:15;6.80;99.90
29003;DHT22;16102;57.138;-2.118;2023-02-02T08:03:42;6.70;99.90
29003;DHT22;16102;57.138;-2.118;2023-02-02T08:06:22;6.70;99.90
29003;DHT22;16102;57.138;-2.118;2023-02-02T08:08:50;6.70;99.90
29003;DHT22;16102;57.138;-2.118;2023-02-02T08:11:19;6.70;99.90
29003;DHT22;16102;57.138;-2.118;2023-02-02T08:13:48;6.80;99.90
29003;DHT22;16102;57.138;-2.118;2023-02-02T08:16:16;6.80;99.90
29003;DHT22;16102;57.138;-2.118;2023-02-02T08:18:44;6.70;99.90
29003;DHT22;16102;57.138;-2.118;2023-02-02T08:21:12;6.80;99.90
29003;DHT22;16102;57.138;-2.118;2023-02-02T08:23:40;6.80;99.90
29003;DHT22;16102;57.138;-2.118;2023-02-02T08:26:11;6.80;99.90
29003;DHT22;16102;57.138;-2.118;2023-02-02T08:28:39;6.80;99.90
29003;DHT22;16102;57.138;-2.118;2023-02-02T08:31:17;6.80;99.90
29003;DHT22;16102;57.138;-2.118;2023-02-02T08:33:45;6.80;99.90
29003;DHT22;16102;57.138;-2.118;2023-02-02T08:36:15;6.90;99.90
29003;DHT22;16102;57.138;-2.118;2023-02-02T08:38:42;6.90;99.90
29003;DHT22;16102;57.138;-2.118;2023-02-02T08:41:11;6.90;99.90
29003;DHT22;16102;57.138;-2.118;2023-02-02T08:43:39;6.90;99.90
29003;DHT22;16102;57.138;-2.118;2023-02-02T08:46:09;6.90;99.90
29003;DHT22;16102;57.138;-2.118;2023-02-02T08:48:36;6.90;99.90
29003;DHT22;16102;57.138;-2.118;2023-02-02T08:51:05;6.80;99.90
29003;DHT22;16102;57.138;-2.118;2023-02-02T08:53:33;6.90;99.90
29003;DHT22;16102;57.138;-2.118;2023-02-02T08:56:14;6.90;99.90
29003;DHT22;16102;57.138;-2.118;2023-02-02T08:58:53;6.90;99.90
29003;DHT22;16102;57.138;-2.118;2023-02-02T09:01:24;7.00;99.90
29003;DHT22;16102;57.138;-2.118;2023-02-02T09:03:57;7.00;99.90
29003;DHT22;16102;57.138;-2.118;2023-02-02T09:06:38;7.10;99.90
29003;DHT22;16102;57.138;-2.118;2023-02-02T09:09:08;7.10;99.90
29003;DHT22;16102;57.138;-2.118;2023-02-02T09:11:36;7.20;99.90
29003;DHT22;16102;57.138;-2.118;2023-02-02T09:14:03;7.20;99.90
29003;DHT22;16102;57.138;-2.118;2023-02-02T09:16:33;7.20;99.90
29003;DHT22;16102;57.138;-2.118;2023-02-02T09:19:01;7.20;99.90
29003;DHT22;16102;57.138;-2.118;2023-02-02T09:21:28;7.30;99.90
29003;DHT22;16102;57.138;-2.118;2023-02-02T09:23:56;7.30;99.90
29003;DHT22;16102;57.138;-2.118;2023-02-02T09:26:25;7.30;99.90
29003;DHT22;16102;57.138;-2.118;2023-02-02T09:28:59;7.30;99.90
29003;DHT22;16102;57.138;-2.118;2023-02-02T09:31:29;7.40;99.90
29003;DHT22;16102;57.138;-2.118;2023-02-02T09:34:01;7.40;99.90
29003;DHT22;16102;57.138;-2.118;2023-02-02T09:36:29;7.50;99.90
29003;DHT22;16102;57.138;-2.118;2023-02-02T09:38:56;7.50;99.90
29003;DHT22;16102;57.138;-2.118;2023-02-02T09:52:24;7.70;99.90
29003;DHT22;16102;57.138;-2.118;2023-02-02T09:55:02;7.70;99.90
29003;DHT22;16102;57.138;-2.118;2023-02-02T09:57:37;7.70;99.90
29003;DHT22;16102;57.138;-2.118;2023-02-02T10:00:06;7.70;99.90
29003;DHT22;16102;57.138;-2.118;2023-02-02T10:02:43;7.80;99.90
29003;DHT22;16102;57.138;-2.118;2023-02-02T10:05:16;7.80;99.90
29003;DHT22;16102;57.138;-2.118;2023-02-02T10:07:50;7.80;99.90
29003;DHT22;16102;57.138;-2.118;2023-02-02T10:10:21;7.90;99.90
29003;DHT22;16102;57.138;-2.118;2023-02-02T10:13:06;7.90;99.90
29003;DHT22;16102;57.138;-2.118;2023-02-02T10:15:47;8.00;99.90
29003;DHT22;16102;57.138;-2.118;2023-02-02T10:18:22;8.00;99.90
29003;DHT22;16102;57.138;-2.118;2023-02-02T10:20:56;8.00;99.90
29003;DHT22;16102;57.138;-2.118;2023-02-02T10:23:43;8.10;99.90
29003;DHT22;16102;57.138;-2.118;2023-02-02T10:28:45;8.20;1.00
29003;DHT22;16102;57.138;-2.118;2023-02-02T10:31:32;8.20;99.90
29003;DHT22;16102;57.138;-2.118;2023-02-02T10:34:20;8.20;99.90
29003;DHT22;16102;57.138;-2.118;2023-02-02T10:39:51;8.30;1.00
29003;DHT22;16102;57.138;-2.118;2023-02-02T10:45:41;8.40;2.80
29003;DHT22;16102;57.138;-2.118;2023-02-02T10:48:21;8.40;99.90
29003;DHT22;16102;57.138;-2.118;2023-02-02T10:50:52;8.40;77.80
29003;DHT22;16102;57.138;-2.118;2023-02-02T10:53:20;8.40;1.00
29003;DHT22;16102;57.138;-2.118;2023-02-02T10:56:01;8.50;99.90
29003;DHT22;16102;57.138;-2.118;2023-02-02T10:58:36;8.60;99.90
29003;DHT22;16102;57.138;-2.118;2023-02-02T11:01:07;8.70;99.90
29003;DHT22;16102;57.138;-2.118;2023-02-02T11:03:38;8.70;1.00
29003;DHT22;16102;57.138;-2.118;2023-02-02T11:06:07;8.80;1.00
29003;DHT22;16102;57.138;-2.118;2023-02-02T11:08:53;8.80;99.90
29003;DHT22;16102;57.138;-2.118;2023-02-02T11:11:39;8.90;1.00
29003;DHT22;16102;57.138;-2.118;2023-02-02T11:16:37;8.90;99.90
29003;DHT22;16102;57.138;-2.118;2023-02-02T11:21:50;9.10;99.90
29003;DHT22;16102;57.138;-2.118;2023-02-02T11:24:33;9.10;1.00
29003;DHT22;16102;57.138;-2.118;2023-02-02T11:27:38;9.00;1.00
29003;DHT22;16102;57.138;-2.118;2023-02-02T11:30:36;9.20;1.00
29003;DHT22;16102;57.138;-2.118;2023-02-02T11:38:27;9.20;99.90
29003;DHT22;16102;57.138;-2.118;2023-02-02T11:41:01;9.30;99.90
29003;DHT22;16102;57.138;-2.118;2023-02-02T11:43:33;9.40;99.90
29003;DHT22;16102;57.138;-2.118;2023-02-02T11:46:28;9.40;99.90
29003;DHT22;16102;57.138;-2.118;2023-02-02T11:49:02;9.40;99.90
29003;DHT22;16102;57.138;-2.118;2023-02-02T11:51:30;9.40;99.90
29003;DHT22;16102;57.138;-2.118;2023-02-02T11:54:04;9.40;99.90
29003;DHT22;16102;57.138;-2.118;2023-02-02T11:56:34;9.50;99.90
29003;DHT22;16102;57.138;-2.118;2023-02-02T11:59:03;9.50;1.00
29003;DHT22;16102;57.138;-2.118;2023-02-02T12:01:36;9.60;1.00
29003;DHT22;16102;57.138;-2.118;2023-02-02T12:06:42;9.60;1.00
29003;DHT22;16102;57.138;-2.118;2023-02-02T12:09:21;9.60;1.00
29003;DHT22;16102;57.138;-2.118;2023-02-02T12:12:08;9.60;1.00
29003;DHT22;16102;57.138;-2.118;2023-02-02T12:14:51;9.60;1.00
29003;DHT22;16102;57.138;-2.118;2023-02-02T12:20:45;9.60;1.00
29003;DHT22;16102;57.138;-2.118;2023-02-02T12:23:28;9.70;1.00
29003;DHT22;16102;57.138;-2.118;2023-02-02T12:34:18;9.70;99.90
29003;DHT22;16102;57.138;-2.118;2023-02-02T12:37:07;9.60;99.90
29003;DHT22;16102;57.138;-2.118;2023-02-02T12:40:20;9.60;99.90
29003;DHT22;16102;57.138;-2.118;2023-02-02T12:46:07;9.70;1.00
29003;DHT22;16102;57.138;-2.118;2023-02-02T12:51:20;9.80;1.00
29003;DHT22;16102;57.138;-2.118;2023-02-02T13:02:36;10.10;99.90
29003;DHT22;16102;57.138;-2.118;2023-02-02T13:10:33;9.90;99.90
29003;DHT22;16102;57.138;-2.118;2023-02-02T13:16:13;9.90;1.00
29003;DHT22;16102;57.138;-2.118;2023-02-02T13:18:46;9.80;1.00
29003;DHT22;16102;57.138;-2.118;2023-02-02T13:21:16;9.90;1.00
29003;DHT22;16102;57.138;-2.118;2023-02-02T13:23:50;9.90;1.00
29003;DHT22;16102;57.138;-2.118;2023-02-02T13:26:19;9.90;1.00
29003;DHT22;16102;57.138;-2.118;2023-02-02T13:29:01;9.90;1.00
29003;DHT22;16102;57.138;-2.118;2023-02-02T13:32:01;9.90;99.90
29003;DHT22;16102;57.138;-2.118;2023-02-02T13:34:52;9.90;99.90
29003;DHT22;16102;57.138;-2.118;2023-02-02T13:37:34;9.90;99.90
29003;DHT22;16102;57.138;-2.118;2023-02-02T13:42:53;9.90;1.00
29003;DHT22;16102;57.138;-2.118;2023-02-02T13:45:35;10.00;99.90
29003;DHT22;16102;57.138;-2.118;2023-02-02T13:48:31;10.10;99.90
29003;DHT22;16102;57.138;-2.118;2023-02-02T13:56:46;10.20;1.00
29003;DHT22;16102;57.138;-2.118;2023-02-02T14:02:18;10.20;1.00
29003;DHT22;16102;57.138;-2.118;2023-02-02T14:05:00;10.10;1.00
29003;DHT22;16102;57.138;-2.118;2023-02-02T14:07:39;10.10;1.00
29003;DHT22;16102;57.138;-2.118;2023-02-02T14:10:25;10.00;1.00
29003;DHT22;16102;57.138;-2.118;2023-02-02T14:12:54;10.00;7.60
29003;DHT22;16102;57.138;-2.118;2023-02-02T14:15:42;10.00;57.30
29003;DHT22;16102;57.138;-2.118;2023-02-02T14:18:10;10.00;31.30
29003;DHT22;16102;57.138;-2.118;2023-02-02T14:20:46;10.10;14.50
29003;DHT22;16102;57.138;-2.118;2023-02-02T14:23:48;10.10;1.00
29003;DHT22;16102;57.138;-2.118;2023-02-02T14:26:19;10.00;1.00
29003;DHT22;16102;57.138;-2.118;2023-02-02T14:34:39;10.00;1.00
29003;DHT22;16102;57.138;-2.118;2023-02-02T14:45:39;10.00;1.00
29003;DHT22;16102;57.138;-2.118;2023-02-02T14:48:10;10.20;1.00
29003;DHT22;16102;57.138;-2.118;2023-02-02T14:50:45;10.20;99.90
29003;DHT22;16102;57.138;-2.118;2023-02-02T14:53:22;10.10;1.00
29003;DHT22;16102;57.138;-2.118;2023-02-02T14:56:03;10.10;1.00
29003;DHT22;16102;57.138;-2.118;2023-02-02T15:03:54;10.10;1.00
29003;DHT22;16102;57.138;-2.118;2023-02-02T15:06:35;10.10;99.90
29003;DHT22;16102;57.138;-2.118;2023-02-02T15:14:49;10.10;99.90
29003;DHT22;16102;57.138;-2.118;2023-02-02T15:25:34;10.00;99.90
29003;DHT22;16102;57.138;-2.118;2023-02-02T15:28:58;9.90;1.00
29003;DHT22;16102;57.138;-2.118;2023-02-02T15:31:32;9.90;1.00
29003;DHT22;16102;57.138;-2.118;2023-02-02T15:36:48;9.90;1.00
29003;DHT22;16102;57.138;-2.118;2023-02-02T15:39:35;9.90;1.00
29003;DHT22;16102;57.138;-2.118;2023-02-02T15:43:06;9.80;1.00
29003;DHT22;16102;57.138;-2.118;2023-02-02T15:47:58;10.10;99.90
29003;DHT22;16102;57.138;-2.118;2023-02-02T15:50:25;10.40;99.90
29003;DHT22;16102;57.138;-2.118;2023-02-02T15:52:53;10.60;99.90
29003;DHT22;16102;57.138;-2.118;2023-02-02T15:55:27;10.70;99.90
29003;DHT22;16102;57.138;-2.118;2023-02-02T15:57:55;10.70;99.90
29003;DHT22;16102;57.138;-2.118;2023-02-02T16:00:33;10.70;97.40
29003;DHT22;16102;57.138;-2.118;2023-02-02T16:03:04;10.70;80.30
29003;DHT22;16102;57.138;-2.118;2023-02-02T16:08:17;10.70;72.90
29003;DHT22;16102;57.138;-2.118;2023-02-02T16:10:46;10.70;31.30
29003;DHT22;16102;57.138;-2.118;2023-02-02T16:13:25;10.70;18.70
29003;DHT22;16102;57.138;-2.118;2023-02-02T16:15:54;10.70;1.00
29003;DHT22;16102;57.138;-2.118;2023-02-02T16:18:22;10.80;1.00
29003;DHT22;16102;57.138;-2.118;2023-02-02T16:20:50;10.90;1.00
29003;DHT22;16102;57.138;-2.118;2023-02-02T16:23:26;10.90;1.00
29003;DHT22;16102;57.138;-2.118;2023-02-02T16:25:57;10.90;1.00
29003;DHT22;16102;57.138;-2.118;2023-02-02T16:28:25;10.80;1.00
29003;DHT22;16102;57.138;-2.118;2023-02-02T16:30:52;10.60;1.00
29003;DHT22;16102;57.138;-2.118;2023-02-02T16:33:28;10.60;1.00
29003;DHT22;16102;57.138;-2.118;2023-02-02T16:35:56;10.50;1.00
29003;DHT22;16102;57.138;-2.118;2023-02-02T16:41:08;10.30;1.00
29003;DHT22;16102;57.138;-2.118;2023-02-02T16:43:36;10.20;1.00
29003;DHT22;16102;57.138;-2.118;2023-02-02T16:46:09;10.20;1.00
29003;DHT22;16102;57.138;-2.118;2023-02-02T16:49:00;10.10;1.00
29003;DHT22;16102;57.138;-2.118;2023-02-02T16:51:28;10.20;1.00
29003;DHT22;16102;57.138;-2.118;2023-02-02T16:54:01;10.20;1.00
29003;DHT22;16102;57.138;-2.118;2023-02-02T16:56:39;10.10;1.00
29003;DHT22;16102;57.138;-2.118;2023-02-02T17:01:43;10.00;1.00
29003;DHT22;16102;57.138;-2.118;2023-02-02T17:04:31;9.90;1.00
29003;DHT22;16102;57.138;-2.118;2023-02-02T17:07:09;9.80;1.00
29003;DHT22;16102;57.138;-2.118;2023-02-02T17:09:40;9.80;1.00
29003;DHT22;16102;57.138;-2.118;2023-02-02T17:15:01;9.80;1.00
29003;DHT22;16102;57.138;-2.118;2023-02-02T17:17:31;9.70;1.00
29003;DHT22;16102;57.138;-2.118;2023-02-02T17:19:58;9.80;1.00
29003;DHT22;16102;57.138;-2.118;2023-02-02T17:22:26;9.70;1.00
29003;DHT22;16102;57.138;-2.118;2023-02-02T17:24:53;9.80;1.00
29003;DHT22;16102;57.138;-2.118;2023-02-02T17:27:25;9.90;1.00
29003;DHT22;16102;57.138;-2.118;2023-02-02T17:29:53;9.90;1.00
29003;DHT22;16102;57.138;-2.118;2023-02-02T17:32:21;10.00;1.00
29003;DHT22;16102;57.138;-2.118;2023-02-02T17:34:50;10.10;1.00
29003;DHT22;16102;57.138;-2.118;2023-02-02T17:37:17;10.10;1.00
29003;DHT22;16102;57.138;-2.118;2023-02-02T17:39:44;10.10;1.00
29003;DHT22;16102;57.138;-2.118;2023-02-02T17:42:33;10.20;1.00
29003;DHT22;16102;57.138;-2.118;2023-02-02T17:45:01;10.30;1.00
29003;DHT22;16102;57.138;-2.118;2023-02-02T17:47:28;10.30;1.00
29003;DHT22;16102;57.138;-2.118;2023-02-02T17:49:54;10.40;1.00
29003;DHT22;16102;57.138;-2.118;2023-02-02T17:52:21;10.40;1.00
29003;DHT22;16102;57.138;-2.118;2023-02-02T17:54:48;10.40;1.00
29003;DHT22;16102;57.138;-2.118;2023-02-02T17:57:15;10.40;1.00
29003;DHT22;16102;57.138;-2.118;2023-02-02T17:59:42;10.40;1.00
29003;DHT22;16102;57.138;-2.118;2023-02-02T18:02:12;10.40;1.00
29003;DHT22;16102;57.138;-2.118;2023-02-02T18:04:40;10.40;1.00
29003;DHT22;16102;57.138;-2.118;2023-02-02T18:07:11;10.40;1.00
29003;DHT22;16102;57.138;-2.118;2023-02-02T18:09:38;10.40;1.00
29003;DHT22;16102;57.138;-2.118;2023-02-02T18:12:05;10.40;1.00
29003;DHT22;16102;57.138;-2.118;2023-02-02T18:14:32;10.40;1.00
29003;DHT22;16102;57.138;-2.118;2023-02-02T18:16:59;10.30;1.00
29003;DHT22;16102;57.138;-2.118;2023-02-02T18:19:26;10.30;1.00
29003;DHT22;16102;57.138;-2.118;2023-02-02T18:21:53;10.30;1.00
29003;DHT22;16102;57.138;-2.118;2023-02-02T18:24:20;10.20;1.00
29003;DHT22;16102;57.138;-2.118;2023-02-02T18:26:47;10.10;1.00
29003;DHT22;16102;57.138;-2.118;2023-02-02T18:29:14;10.10;1.00
29003;DHT22;16102;57.138;-2.118;2023-02-02T18:31:41;10.10;1.00
29003;DHT22;16102;57.138;-2.118;2023-02-02T18:34:08;10.10;1.00
29003;DHT22;16102;57.138;-2.118;2023-02-02T18:36:35;10.00;1.00